Time;durP1;ratioP1;P1;durP2;ratioP2;P2;SDS_P1;SDS_P2;PMS_P1;PMS_P2;Temp;Humidity;BMP_temperature;BMP_pressure;BME280_temperature;BME280_humidity;BME280_pressure;Samples;Min_cycle;Max_cycle;Signal;HPM_P1;HPM_P2
2021/12/04 00:00:38;;;;;;;4.82;3.38;;;5.70;56.20;;;;;;4956693;28;20267;-62
2021/12/04 00:03:04;;;;;;;7.55;3.20;;;5.70;56.20;;;;;;4956322;28;21069;-61
2021/12/04 00:05:30;;;;;;;4.30;2.80;;;5.50;56.80;;;;;;4956969;28;20185;-58
2021/12/04 00:07:57;;;;;;;5.15;3.10;;;5.40;57.30;;;;;;4956093;28;20181;-65
2021/12/04 00:10:27;;;;;;;4.53;3.47;;;5.60;56.50;;;;;;4956107;28;20231;-60
2021/12/04 00:12:53;;;;;;;6.40;2.85;;;5.70;56.90;;;;;;4956696;28;20191;-60
2021/12/04 00:15:19;;;;;;;5.32;3.00;;;5.40;57.60;;;;;;4956102;28;20553;-66
2021/12/04 00:17:44;;;;;;;7.22;3.17;;;5.40;58.00;;;;;;4956388;28;20188;-68
2021/12/04 00:20:11;;;;;;;6.60;3.70;;;5.60;57.00;;;;;;4956255;28;20180;-71
2021/12/04 00:22:38;;;;;;;5.20;2.80;;;5.70;56.70;;;;;;4956186;28;20622;-71
2021/12/04 00:25:05;;;;;;;5.85;3.00;;;5.50;57.00;;;;;;4956400;28;20651;-72
2021/12/04 00:27:31;;;;;;;3.47;2.80;;;5.50;57.00;;;;;;4956045;28;20177;-73
2021/12/04 00:29:58;;;;;;;5.80;2.85;;;5.50;57.30;;;;;;4956151;28;20207;-73
2021/12/04 00:32:30;;;;;;;6.30;3.03;;;5.70;56.90;;;;;;4955650;28;20244;-73
2021/12/04 00:35:08;;;;;;;5.22;2.80;;;5.90;56.40;;;;;;4956029;28;20187;-71
2021/12/04 00:51:14;;;;;;;2.92;2.60;;;5.50;57.10;;;;;;4956170;29;20188;-70
2021/12/04 00:53:40;;;;;;;3.53;2.38;;;5.80;55.70;;;;;;4955476;28;20606;-69
2021/12/04 00:56:06;;;;;;;3.90;2.60;;;5.80;55.40;;;;;;4955763;28;20180;-70
2021/12/04 00:58:32;;;;;;;3.25;2.28;;;5.90;54.30;;;;;;4955440;28;20203;-73
2021/12/04 01:00:58;;;;;;;4.65;2.40;;;6.00;54.00;;;;;;4955416;28;20180;-70
2021/12/04 01:03:24;;;;;;;3.55;2.45;;;6.00;54.90;;;;;;4955268;28;20723;-71
2021/12/04 01:05:50;;;;;;;3.42;2.10;;;5.80;55.30;;;;;;4955413;28;20204;-70
2021/12/04 01:08:16;;;;;;;3.90;2.60;;;5.70;54.20;;;;;;4955177;28;20460;-60
2021/12/04 01:10:42;;;;;;;5.82;2.72;;;5.90;54.80;;;;;;4955449;28;20223;-64
2021/12/04 01:13:11;;;;;;;4.07;2.28;;;5.90;54.40;;;;;;4955325;28;20185;-62
2021/12/04 01:15:42;;;;;;;3.58;2.00;;;5.70;53.80;;;;;;4955470;28;20268;-59
2021/12/04 01:18:10;;;;;;;3.50;2.35;;;5.80;54.20;;;;;;4955287;28;20678;-66
2021/12/04 01:20:35;;;;;;;2.85;2.00;;;5.90;54.00;;;;;;4955380;28;20209;-61
2021/12/04 01:23:03;;;;;;;4.07;2.30;;;5.60;54.10;;;;;;4955071;28;20232;-62
2021/12/04 01:25:30;;;;;;;2.50;2.05;;;5.70;54.10;;;;;;4955187;28;20293;-69
2021/12/04 01:27:56;;;;;;;4.43;2.13;;;5.80;53.80;;;;;;4955216;28;20188;-63
2021/12/04 01:30:22;;;;;;;2.63;2.10;;;5.70;53.70;;;;;;4955125;28;20188;-68
2021/12/04 01:32:48;;;;;;;2.70;2.30;;;5.80;53.80;;;;;;4955239;28;20264;-70
2021/12/04 01:35:14;;;;;;;3.35;2.17;;;5.70;54.10;;;;;;4955183;28;20517;-71
2021/12/04 01:37:39;;;;;;;2.85;2.10;;;5.70;54.10;;;;;;4955127;28;20181;-72
2021/12/04 01:40:06;;;;;;;3.40;2.42;;;5.70;54.50;;;;;;4955156;28;20295;-72
2021/12/04 01:42:35;;;;;;;3.40;2.25;;;5.70;54.30;;;;;;4955061;28;20283;-72
2021/12/04 01:45:02;;;;;;;4.10;2.58;;;5.70;54.80;;;;;;4956287;28;20263;-73
2021/12/04 01:47:28;;;;;;;3.13;2.22;;;5.60;55.20;;;;;;4955955;28;20208;-73
2021/12/04 01:49:55;;;;;;;4.97;2.63;;;5.60;55.50;;;;;;4955318;28;20243;-72
2021/12/04 01:52:21;;;;;;;5.25;2.63;;;5.60;55.40;;;;;;4955111;28;20177;-69
2021/12/04 01:54:48;;;;;;;3.60;2.40;;;5.60;55.40;;;;;;4954940;28;20185;-71
2021/12/04 01:57:15;;;;;;;4.60;2.33;;;5.60;55.20;;;;;;4954956;28;20173;-58
2021/12/04 01:59:42;;;;;;;5.63;2.45;;;5.60;55.00;;;;;;4958763;28;20611;-60
2021/12/04 02:02:08;;;;;;;4.28;2.20;;;5.60;54.80;;;;;;4958545;28;20244;-63
2021/12/04 02:04:33;;;;;;;2.20;1.80;;;5.60;54.40;;;;;;4958393;28;20185;-65
2021/12/04 02:07:04;;;;;;;4.53;2.45;;;5.60;54.20;;;;;;4958769;28;20177;-60
2021/12/04 02:09:34;;;;;;;2.65;2.13;;;5.70;53.60;;;;;;4958228;28;20708;-66
2021/12/04 02:12:03;;;;;;;3.03;2.42;;;5.60;53.90;;;;;;4958563;28;20185;-65
2021/12/04 02:14:30;;;;;;;3.58;2.25;;;5.60;53.90;;;;;;4958296;28;20228;-71
2021/12/04 02:16:55;;;;;;;3.03;2.38;;;5.60;53.80;;;;;;4958559;28;20181;-71
2021/12/04 02:19:21;;;;;;;2.78;1.85;;;5.70;53.60;;;;;;4958686;28;20185;-72
2021/12/04 02:21:47;;;;;;;2.20;2.00;;;5.60;53.20;;;;;;4958569;28;20212;-69
2021/12/04 02:24:13;;;;;;;2.53;2.17;;;5.60;53.20;;;;;;4958278;28;20219;-71
2021/12/04 02:26:38;;;;;;;3.95;2.53;;;5.70;52.90;;;;;;4958655;28;20177;-71
2021/12/04 02:29:04;;;;;;;2.38;2.03;;;5.70;53.10;;;;;;4958303;28;20259;-72
2021/12/04 02:31:30;;;;;;;2.80;2.03;;;5.70;52.90;;;;;;4958263;28;20181;-72
2021/12/04 02:33:56;;;;;;;3.95;2.20;;;5.60;53.00;;;;;;4958413;28;20211;-72
2021/12/04 02:36:21;;;;;;;2.42;2.20;;;5.60;53.30;;;;;;4958066;28;20228;-69
2021/12/04 02:38:53;;;;;;;3.42;2.20;;;5.60;53.10;;;;;;4958228;28;20595;-72
2021/12/04 02:41:20;;;;;;;3.65;2.72;;;5.60;53.00;;;;;;4958370;28;20193;-71
2021/12/04 02:43:47;;;;;;;2.42;1.95;;;5.70;53.20;;;;;;4958069;28;20787;-72
2021/12/04 02:46:14;;;;;;;3.03;2.20;;;5.60;53.60;;;;;;4958044;28;20192;-71
2021/12/04 02:48:42;;;;;;;5.38;2.00;;;5.60;53.50;;;;;;4957726;28;20335;-60
2021/12/04 02:51:08;;;;;;;2.72;1.92;;;5.60;53.60;;;;;;4957872;28;20177;-59
2021/12/04 02:53:34;;;;;;;3.72;2.30;;;5.50;53.90;;;;;;4958197;28;20195;-65
2021/12/04 02:56:00;;;;;;;3.38;2.33;;;5.60;53.40;;;;;;4957952;28;20261;-70
2021/12/04 02:58:26;;;;;;;3.00;2.28;;;5.50;53.30;;;;;;4957786;28;20288;-67
2021/12/04 03:00:52;;;;;;;2.58;2.10;;;5.60;52.40;;;;;;4958084;28;20173;-71
2021/12/04 03:03:20;;;;;;;3.80;1.63;;;5.60;52.40;;;;;;4957736;28;20223;-73
2021/12/04 03:05:50;;;;;;;2.78;1.98;;;5.60;52.10;;;;;;4958065;28;20646;-66
2021/12/04 03:08:17;;;;;;;3.10;2.28;;;5.60;52.90;;;;;;4957523;28;20619;-70
2021/12/04 03:10:44;;;;;;;2.70;1.90;;;5.50;52.00;;;;;;4956962;28;20188;-71
2021/12/04 03:13:10;;;;;;;3.92;2.10;;;5.50;51.80;;;;;;4957563;28;20260;-68
2021/12/04 03:15:44;;;;;;;2.42;1.88;;;5.50;51.90;;;;;;4957442;28;20209;-71
2021/12/04 03:18:10;;;;;;;2.28;1.90;;;5.50;51.70;;;;;;4957550;28;20540;-72
2021/12/04 03:20:42;;;;;;;2.28;1.73;;;5.60;51.70;;;;;;4957570;28;20208;-65
2021/12/04 03:23:15;;;;;;;3.72;1.77;;;5.50;51.40;;;;;;4957490;28;20217;-60
2021/12/04 03:25:43;;;;;;;1.98;1.30;;;5.60;51.30;;;;;;4957307;28;20268;-66
2021/12/04 03:28:12;;;;;;;2.78;1.70;;;5.60;51.00;;;;;;4957349;28;20580;-62
2021/12/04 03:30:50;;;;;;;2.60;1.73;;;5.50;51.10;;;;;;4957486;28;20173;-63
2021/12/04 03:41:14;;;;;;;1.50;1.40;;;5.70;51.00;;;;;;4956978;29;20220;-60
2021/12/04 03:43:39;;;;;;;1.60;1.50;;;5.60;51.20;;;;;;4956773;28;20220;-58
2021/12/04 03:46:07;;;;;;;2.33;1.60;;;5.70;52.00;;;;;;4957023;28;20595;-62
2021/12/04 03:51:02;;;;;;;2.50;1.40;;;5.60;52.50;;;;;;4956775;28;20819;-60
2021/12/04 03:53:28;;;;;;;2.28;1.70;;;5.50;52.70;;;;;;4957207;28;20187;-62
2021/12/04 03:55:54;;;;;;;1.50;1.38;;;5.70;51.80;;;;;;4957218;28;20185;-71
2021/12/04 03:58:20;;;;;;;3.10;1.83;;;5.80;51.60;;;;;;4957222;28;20207;-71
2021/12/04 04:00:47;;;;;;;2.40;1.65;;;5.80;50.80;;;;;;4956611;28;20177;-58
2021/12/04 04:03:13;;;;;;;3.80;1.70;;;5.80;51.10;;;;;;4956472;28;20641;-66
2021/12/04 04:05:39;;;;;;;3.60;1.63;;;5.90;50.20;;;;;;4956512;28;20195;-61
2021/12/04 04:08:05;;;;;;;2.88;1.65;;;5.90;50.80;;;;;;4956392;28;20196;-62
2021/12/04 04:10:31;;;;;;;4.00;1.83;;;5.90;50.30;;;;;;4956164;28;20232;-60
2021/12/04 04:12:57;;;;;;;1.65;1.50;;;5.80;50.20;;;;;;4956455;28;20667;-66
2021/12/04 04:15:23;;;;;;;1.98;1.55;;;5.90;49.90;;;;;;4956245;28;20184;-61
2021/12/04 04:17:49;;;;;;;1.52;1.35;;;5.90;49.70;;;;;;4956404;28;20181;-64
2021/12/04 04:20:17;;;;;;;2.50;1.40;;;5.90;49.60;;;;;;4956225;28;20188;-60
2021/12/04 04:22:44;;;;;;;3.33;1.30;;;6.00;49.40;;;;;;4955460;28;20201;-60
2021/12/04 04:25:12;;;;;;;2.20;1.60;;;5.90;49.80;;;;;;4956387;28;20211;-64
2021/12/04 04:27:38;;;;;;;4.43;1.58;;;5.90;49.90;;;;;;4955852;28;20185;-61
2021/12/04 04:30:07;;;;;;;1.75;1.40;;;5.90;49.80;;;;;;4955919;28;20199;-63
2021/12/04 04:32:33;;;;;;;1.73;1.27;;;5.80;50.20;;;;;;4955916;28;20181;-59
2021/12/04 04:35:08;;;;;;;4.70;1.67;;;5.80;49.90;;;;;;4955881;28;20196;-67
2021/12/04 04:59:32;;;;;;;1.10;1.10;;;5.70;49.60;;;;;;4955852;29;20682;-60
2021/12/04 05:12:50;;;;;;;2.10;1.25;;;6.00;49.30;;;;;;4955489;29;20211;-60
2021/12/04 05:15:33;;;;;;;3.60;1.30;;;6.10;49.30;;;;;;4955286;28;20647;-58
2021/12/04 05:20:36;;;;;;;1.50;1.25;;;6.00;50.40;;;;;;4955071;28;20168;-63
2021/12/04 05:23:02;;;;;;;2.25;1.40;;;5.90;50.80;;;;;;4955245;28;20232;-62
2021/12/04 05:25:30;;;;;;;2.70;1.70;;;5.80;51.10;;;;;;4955357;28;20181;-62
2021/12/04 05:27:55;;;;;;;2.85;1.30;;;5.80;51.00;;;;;;4955084;28;20588;-61
2021/12/04 05:30:21;;;;;;;2.00;1.30;;;5.80;51.10;;;;;;4954989;28;20172;-61
2021/12/04 05:32:47;;;;;;;2.65;1.58;;;5.70;51.90;;;;;;4955019;28;20184;-60
2021/12/04 05:35:13;;;;;;;1.52;1.20;;;5.60;52.30;;;;;;4955160;28;20180;-60
2021/12/04 05:37:39;;;;;;;3.35;1.30;;;5.40;53.50;;;;;;4954989;28;20199;-61
2021/12/04 05:40:10;;;;;;;1.58;1.27;;;5.40;53.30;;;;;;4954793;28;20201;-60
2021/12/04 05:42:35;;;;;;;1.42;1.33;;;5.50;52.70;;;;;;4954912;28;20274;-68
2021/12/04 05:45:02;;;;;;;3.13;1.60;;;5.50;53.30;;;;;;4955113;28;20216;-71
2021/12/04 05:47:38;;;;;;;2.70;1.23;;;5.40;52.70;;;;;;4954935;28;20220;-71
2021/12/04 05:53:04;;;;;;;1.67;1.27;;;5.40;52.90;;;;;;4954941;28;20220;-70
2021/12/04 05:55:32;;;;;;;2.60;1.48;;;5.30;53.60;;;;;;4954954;28;20625;-69
2021/12/04 05:57:58;;;;;;;1.95;1.40;;;5.20;54.90;;;;;;4954587;28;20629;-71
2021/12/04 06:00:25;;;;;;;2.30;1.38;;;5.10;55.70;;;;;;4954884;28;20313;-71
2021/12/04 06:02:51;;;;;;;2.10;1.40;;;5.20;55.80;;;;;;4955172;28;20582;-70
2021/12/04 06:05:17;;;;;;;1.92;1.30;;;5.10;56.10;;;;;;4954619;28;20256;-70
2021/12/04 06:07:43;;;;;;;1.90;1.38;;;5.10;56.80;;;;;;4954769;28;20276;-71
2021/12/04 06:10:10;;;;;;;1.77;1.20;;;5.00;57.80;;;;;;4954621;28;20224;-72
2021/12/04 06:12:36;;;;;;;1.30;1.20;;;4.90;58.70;;;;;;4954791;28;20181;-73
2021/12/04 06:15:03;;;;;;;1.63;1.20;;;4.80;59.00;;;;;;4954846;28;20191;-73
2021/12/04 06:17:29;;;;;;;2.15;1.67;;;4.80;59.40;;;;;;4954442;28;20180;-70
2021/12/04 06:22:41;;;;;;;1.67;1.50;;;4.70;59.60;;;;;;4954983;29;20220;-70
2021/12/04 06:25:24;;;;;;;1.33;1.23;;;4.70;60.60;;;;;;4954593;28;20181;-72
2021/12/04 06:27:51;;;;;;;1.70;1.40;;;4.60;60.30;;;;;;4954648;28;20644;-72
2021/12/04 06:30:18;;;;;;;1.95;1.27;;;4.60;60.50;;;;;;4954545;28;20185;-72
2021/12/04 06:32:47;;;;;;;1.80;1.30;;;4.70;60.90;;;;;;4954353;28;20200;-72
2021/12/04 06:35:13;;;;;;;1.95;1.20;;;4.60;61.60;;;;;;4954399;28;20196;-70
2021/12/04 06:37:39;;;;;;;1.92;1.48;;;4.60;60.80;;;;;;4954268;28;20188;-64
2021/12/04 06:40:06;;;;;;;1.35;1.10;;;4.60;60.70;;;;;;4954308;28;20197;-59
2021/12/04 06:42:32;;;;;;;3.40;1.35;;;5.00;56.60;;;;;;4954279;28;20188;-60
2021/12/04 06:44:58;;;;;;;5.20;1.40;;;5.20;53.80;;;;;;4955054;28;20177;-67
2021/12/04 06:47:24;;;;;;;1.60;1.27;;;5.40;53.20;;;;;;4957832;28;20529;-67
2021/12/04 06:49:54;;;;;;;1.92;1.30;;;5.30;56.70;;;;;;4957765;28;20284;-70
2021/12/04 06:52:23;;;;;;;1.77;1.30;;;5.10;58.90;;;;;;4957538;28;20180;-69
2021/12/04 06:54:56;;;;;;;2.53;1.25;;;5.00;60.60;;;;;;4957917;28;20192;-70
2021/12/04 06:57:23;;;;;;;1.27;1.17;;;5.00;60.00;;;;;;4957792;28;20555;-74
2021/12/04 06:59:52;;;;;;;4.03;1.30;;;5.00;60.50;;;;;;4957690;28;20221;-72
2021/12/04 07:02:18;;;;;;;1.63;1.30;;;5.00;60.50;;;;;;4957433;28;20179;-69
2021/12/04 07:04:43;;;;;;;1.73;1.33;;;4.90;61.00;;;;;;4957288;28;20216;-72
2021/12/04 07:07:10;;;;;;;1.38;1.27;;;4.90;61.40;;;;;;4957424;28;20173;-71
2021/12/04 07:09:37;;;;;;;1.95;1.48;;;4.90;61.40;;;;;;4957283;28;20286;-71
2021/12/04 07:12:04;;;;;;;2.25;1.67;;;4.90;61.50;;;;;;4957339;28;20185;-71
2021/12/04 07:14:31;;;;;;;5.82;1.52;;;4.90;61.50;;;;;;4957118;28;20177;-68
2021/12/04 07:16:58;;;;;;;2.22;2.00;;;5.00;61.10;;;;;;4957215;28;20184;-72
2021/12/04 07:19:24;;;;;;;3.88;1.45;;;5.00;60.50;;;;;;4956976;28;20231;-72
2021/12/04 07:21:49;;;;;;;3.92;1.60;;;5.10;60.30;;;;;;4957451;28;20628;-72
2021/12/04 07:24:16;;;;;;;2.38;1.33;;;5.10;61.70;;;;;;4957222;28;20213;-69
2021/12/04 07:26:42;;;;;;;2.78;1.70;;;5.10;62.20;;;;;;4957008;28;20173;-73
2021/12/04 07:29:08;;;;;;;2.63;1.95;;;5.20;63.40;;;;;;4956466;28;20211;-70
2021/12/04 07:31:34;;;;;;;3.35;2.10;;;5.10;61.80;;;;;;4956805;28;20181;-72
2021/12/04 07:34:00;;;;;;;3.28;1.90;;;5.20;61.10;;;;;;4956591;28;20181;-65
2021/12/04 07:36:26;;;;;;;2.75;2.20;;;5.20;60.00;;;;;;4956874;28;20209;-68
2021/12/04 07:38:53;;;;;;;5.05;2.30;;;5.30;60.20;;;;;;4957819;28;20197;-67
2021/12/04 07:41:19;;;;;;;11.75;5.30;;;5.70;60.60;;;;;;4961461;28;20196;-63
2021/12/04 07:43:45;;;;;;;11.57;5.68;;;6.20;58.70;;;;;;4959941;28;20208;-63
2021/12/04 07:46:11;;;;;;;7.22;4.10;;;6.30;57.90;;;;;;4961563;28;20264;-68
2021/12/04 07:48:38;;;;;;;7.15;4.05;;;6.50;59.20;;;;;;4958782;28;20311;-66
2021/12/04 07:51:04;;;;;;;9.43;4.65;;;6.60;61.00;;;;;;4957605;28;20770;-64
2021/12/04 07:53:32;;;;;;;9.57;3.80;;;6.80;59.70;;;;;;4956777;28;20176;-65
2021/12/04 07:55:58;;;;;;;4.95;2.97;;;7.00;58.00;;;;;;4956079;28;20183;-66
2021/12/04 07:58:24;;;;;;;5.35;3.22;;;6.90;55.50;;;;;;4956319;28;20661;-65
2021/12/04 08:00:50;;;;;;;7.50;2.60;;;6.90;55.10;;;;;;4956329;28;20224;-69
2021/12/04 08:03:16;;;;;;;2.72;2.20;;;6.80;55.30;;;;;;4956175;28;20306;-62
2021/12/04 08:05:43;;;;;;;3.15;2.42;;;6.90;55.40;;;;;;4956088;28;20177;-65
2021/12/04 08:08:08;;;;;;;2.90;2.33;;;6.90;56.30;;;;;;4954242;29;20251;-73
2021/12/04 08:10:34;;;;;;;3.03;2.10;;;7.10;56.60;;;;;;4956069;28;20193;-74
2021/12/04 08:13:02;;;;;;;3.72;1.98;;;7.20;55.90;;;;;;4956331;28;20183;-60
2021/12/04 08:15:28;;;;;;;2.42;1.92;;;7.20;54.90;;;;;;4955739;28;20216;-63
2021/12/04 08:17:54;;;;;;;3.88;2.10;;;7.20;54.00;;;;;;4955982;28;20177;-64
2021/12/04 08:20:20;;;;;;;2.40;1.80;;;7.20;55.70;;;;;;4955693;28;20520;-65
2021/12/04 08:22:47;;;;;;;3.15;2.53;;;7.20;55.20;;;;;;4954292;29;20687;-63
2021/12/04 08:25:16;;;;;;;5.32;2.20;;;7.20;54.90;;;;;;4955599;28;20236;-64
2021/12/04 08:27:43;;;;;;;4.35;1.98;;;7.20;56.30;;;;;;4955496;28;20193;-63
2021/12/04 08:30:12;;;;;;;4.65;2.60;;;7.20;57.80;;;;;;4955440;28;20176;-65
2021/12/04 08:32:39;;;;;;;2.67;2.38;;;7.20;58.50;;;;;;4955114;28;20174;-67
2021/12/04 08:35:07;;;;;;;2.90;2.30;;;7.20;57.10;;;;;;4955567;28;20212;-65
2021/12/04 08:37:33;;;;;;;3.92;2.00;;;7.20;55.10;;;;;;4955031;28;20196;-61
2021/12/04 08:39:58;;;;;;;4.30;2.67;;;7.30;54.90;;;;;;4955703;28;20272;-65
2021/12/04 08:42:25;;;;;;;4.57;2.53;;;7.40;55.20;;;;;;4955116;28;20263;-62
2021/12/04 08:44:51;;;;;;;4.57;2.95;;;7.50;56.30;;;;;;4953828;29;20200;-63
2021/12/04 08:47:18;;;;;;;3.92;2.45;;;7.50;56.80;;;;;;4955579;28;20231;-65
2021/12/04 08:49:44;;;;;;;7.75;2.47;;;7.60;55.70;;;;;;4955375;28;20201;-62
2021/12/04 08:52:10;;;;;;;4.45;1.98;;;7.60;55.00;;;;;;4955394;28;20169;-66
2021/12/04 08:54:37;;;;;;;3.33;1.85;;;7.70;53.20;;;;;;4955253;28;20187;-65
2021/12/04 08:57:03;;;;;;;2.78;2.00;;;7.50;53.00;;;;;;4955182;28;20192;-68
2021/12/04 08:59:32;;;;;;;4.88;2.22;;;7.70;53.30;;;;;;4954771;28;20287;-74
2021/12/04 09:01:58;;;;;;;4.30;2.53;;;7.70;53.30;;;;;;4955277;28;20707;-68
2021/12/04 09:04:27;;;;;;;4.30;2.30;;;7.70;53.60;;;;;;4955089;28;20216;-67
2021/12/04 09:06:54;;;;;;;2.15;1.95;;;7.60;53.40;;;;;;4955114;28;20547;-61
2021/12/04 09:09:22;;;;;;;3.05;2.08;;;7.60;53.00;;;;;;4954224;28;20236;-68
2021/12/04 09:11:53;;;;;;;4.63;2.17;;;7.70;52.30;;;;;;4954880;28;20215;-68
2021/12/04 09:14:24;;;;;;;5.22;1.90;;;7.80;51.70;;;;;;4955107;28;20188;-65
2021/12/04 09:16:52;;;;;;;4.13;2.25;;;8.00;51.50;;;;;;4955064;28;20551;-64
2021/12/04 09:19:19;;;;;;;12.25;3.88;;;8.00;49.80;;;;;;4953189;29;20204;-63
2021/12/04 09:21:46;;;;;;;5.00;1.80;;;8.30;51.20;;;;;;4953655;29;20312;-65
2021/12/04 09:24:17;;;;;;;3.92;2.08;;;8.40;50.40;;;;;;4954822;28;20204;-63
2021/12/04 09:26:54;;;;;;;2.25;1.67;;;8.60;50.90;;;;;;4958549;28;20183;-65
2021/12/04 09:30:03;;;;;;;2.13;1.42;;;8.70;48.00;;;;;;4959729;28;20337;-68
2021/12/04 09:32:53;;;;;;;2.08;1.30;;;8.90;47.80;;;;;;4961036;29;20719;-60
2021/12/04 10:20:44;;;;;;;1.30;1.20;;;9.20;41.20;;;;;;4957323;28;20641;-61
2021/12/04 10:33:48;;;;;;;1.65;1.23;;;9.60;40.70;;;;;;4976427;28;20242;-59
2021/12/04 10:36:32;;;;;;;4.35;1.95;;;9.50;39.70;;;;;;4975939;28;20596;-59
2021/12/04 10:38:58;;;;;;;3.85;1.45;;;9.60;41.10;;;;;;4975676;28;20199;-61
2021/12/04 10:41:43;;;;;;;2.65;1.20;;;9.70;40.20;;;;;;4975916;28;20180;-61
2021/12/04 10:44:08;;;;;;;1.65;1.10;;;9.40;40.20;;;;;;4975782;28;20726;-61
2021/12/04 10:46:34;;;;;;;1.63;1.10;;;9.50;39.10;;;;;;4975234;28;20185;-60
2021/12/04 10:49:10;;;;;;;58.85;16.95;;;9.60;39.40;;;;;;4976344;28;20200;-65
2021/12/04 10:51:50;;;;;;;5.18;1.75;;;9.90;47.50;;;;;;4975876;28;20169;-65
2021/12/04 10:54:25;;;;;;;1.55;1.00;;;10.00;38.70;;;;;;4976804;28;20710;-59
2021/12/04 10:59:32;;;;;;;3.58;1.30;;;10.10;39.10;;;;;;4976944;28;20204;-64
2021/12/04 11:43:18;;;;;;;3.63;2.15;;;10.20;37.00;;;;;;4977074;28;20212;-65
2021/12/04 11:48:30;;;;;;;2.03;1.60;;;10.30;38.10;;;;;;4956351;28;20204;-66
2021/12/04 11:50:56;;;;;;;3.13;1.83;;;10.30;38.80;;;;;;4956617;28;20185;-60
2021/12/04 11:53:22;;;;;;;1.63;1.20;;;10.40;39.00;;;;;;4969951;28;20259;-60
2021/12/04 11:55:49;;;;;;;1.75;1.45;;;10.40;37.90;;;;;;4962263;28;20228;-59
2021/12/04 11:58:33;;;;;;;1.90;1.50;;;10.50;38.50;;;;;;4974329;28;20204;-61
2021/12/04 12:01:05;;;;;;;1.80;1.40;;;10.20;37.80;;;;;;4972093;28;20181;-64
2021/12/04 12:03:33;;;;;;;2.08;1.50;;;9.80;37.90;;;;;;4967606;28;20283;-66
2021/12/04 12:06:03;;;;;;;2.78;1.60;;;9.70;38.50;;;;;;4974879;28;20264;-65
2021/12/04 12:08:32;;;;;;;1.75;1.48;;;9.90;38.90;;;;;;4967992;28;20637;-61
2021/12/04 12:11:07;;;;;;;2.67;1.55;;;10.00;40.30;;;;;;4975356;28;20187;-64
2021/12/04 12:14:00;;;;;;;3.33;1.50;;;10.10;41.20;;;;;;4975347;28;20183;-64
2021/12/04 12:16:36;;;;;;;4.72;1.65;;;10.20;41.70;;;;;;4974800;28;20645;-63
2021/12/04 12:19:11;;;;;;;4.20;1.40;;;10.20;41.20;;;;;;4974348;28;20207;-63
2021/12/04 12:22:19;;;;;;;2.50;1.55;;;10.10;40.90;;;;;;4971299;28;20659;-65
2021/12/04 12:27:51;;;;;;;2.20;1.23;;;9.90;42.50;;;;;;4974483;28;20358;-57
2021/12/04 12:33:43;;;;;;;1.33;1.20;;;9.60;45.30;;;;;;4948209;28;20264;-59
2021/12/04 12:36:17;;;;;;;3.58;1.75;;;9.70;46.40;;;;;;4951787;28;20297;-56
2021/12/04 12:39:01;;;;;;;2.25;1.45;;;9.80;46.00;;;;;;4954346;28;20631;-56
2021/12/04 12:41:27;;;;;;;4.22;2.05;;;9.80;44.90;;;;;;4961205;28;20243;-55
2021/12/04 12:44:27;;;;;;;8.57;4.20;;;9.80;44.80;;;;;;4954847;28;20212;-56
2021/12/04 12:47:05;;;;;;;1.75;1.60;;;9.80;45.00;;;;;;4955152;28;20275;-55
2021/12/04 12:49:40;;;;;;;2.38;1.48;;;9.60;45.60;;;;;;4958156;28;20262;-67
2021/12/04 12:52:43;;;;;;;4.22;1.85;;;9.50;46.60;;;;;;4973602;28;20172;-62
2021/12/04 12:55:10;;;;;;;4.47;2.08;;;9.40;47.20;;;;;;4957893;28;20184;-71
2021/12/04 12:57:39;;;;;;;2.75;1.38;;;9.50;46.70;;;;;;4973202;28;20192;-57
2021/12/04 13:12:11;;;;;;;2.20;1.58;;;10.10;47.30;;;;;;4959293;28;20600;-57
2021/12/04 13:14:49;;;;;;;3.05;1.90;;;10.10;47.80;;;;;;4973246;28;20188;-56
2021/12/04 13:17:16;;;;;;;5.07;2.00;;;10.10;48.20;;;;;;4966676;28;20596;-72
2021/12/04 13:19:47;;;;;;;2.47;1.90;;;10.10;48.60;;;;;;4959867;28;20283;-71
2021/12/04 13:22:18;;;;;;;4.38;1.98;;;10.20;49.20;;;;;;4956795;28;20177;-63
2021/12/04 13:24:47;;;;;;;7.72;2.30;;;10.20;49.30;;;;;;4961776;28;20369;-59
2021/12/04 13:29:44;;;;;;;6.95;1.80;;;10.20;49.70;;;;;;4953389;28;20239;-59
2021/12/04 13:32:13;;;;;;;2.53;1.60;;;10.20;49.10;;;;;;4957065;28;20173;-61
2021/12/04 13:34:40;;;;;;;2.40;1.83;;;10.20;49.10;;;;;;4953887;28;20195;-64
2021/12/04 13:37:07;;;;;;;2.13;1.60;;;10.20;49.20;;;;;;4961756;28;20250;-59
2021/12/04 13:39:35;;;;;;;4.18;2.10;;;10.20;50.00;;;;;;4955159;28;20296;-62
2021/12/04 13:42:02;;;;;;;5.03;2.25;;;10.20;49.70;;;;;;4955989;28;20173;-67
2021/12/04 13:44:29;;;;;;;3.17;2.40;;;10.20;50.00;;;;;;4957325;28;20212;-58
2021/12/04 13:47:07;;;;;;;5.47;2.28;;;10.20;49.70;;;;;;4965991;28;20540;-58
2021/12/04 13:49:33;;;;;;;5.60;2.22;;;10.10;50.00;;;;;;4973041;28;20208;-61
2021/12/04 13:52:08;;;;;;;3.00;2.13;;;10.00;51.00;;;;;;4973887;28;20530;-58
2021/12/04 13:54:40;;;;;;;5.80;2.20;;;10.00;52.20;;;;;;4976147;28;20580;-60
2021/12/04 13:57:11;;;;;;;5.43;3.20;;;9.80;53.00;;;;;;4978071;28;20191;-73
2021/12/04 13:59:37;;;;;;;7.57;3.97;;;9.80;53.80;;;;;;4977916;28;20207;-62
2021/12/04 14:02:04;;;;;;;5.93;3.42;;;9.60;54.30;;;;;;4977926;28;20251;-63
2021/12/04 14:04:30;;;;;;;7.20;3.70;;;9.60;55.30;;;;;;4977843;28;20218;-59
2021/12/04 14:07:01;;;;;;;14.18;4.60;;;9.50;55.80;;;;;;4977809;28;20176;-60
2021/12/04 14:09:39;;;;;;;7.90;5.20;;;9.60;56.40;;;;;;4977476;28;20588;-62
2021/12/04 14:12:06;;;;;;;11.25;6.07;;;9.50;56.50;;;;;;4977613;28;20254;-64
2021/12/04 14:14:34;;;;;;;9.50;6.53;;;9.50;56.30;;;;;;4976518;28;20650;-62
2021/12/04 14:17:10;;;;;;;13.00;7.65;;;9.60;57.10;;;;;;4977514;28;20277;-59
2021/12/04 14:19:37;;;;;;;17.02;7.82;;;9.50;57.80;;;;;;4977505;28;20192;-59
2021/12/04 14:22:12;;;;;;;17.33;8.60;;;9.50;57.50;;;;;;4977679;28;20175;-61
2021/12/04 14:24:45;;;;;;;14.18;7.15;;;9.50;58.00;;;;;;4977242;28;20215;-60
2021/12/04 14:27:16;;;;;;;12.63;7.30;;;9.50;59.10;;;;;;4977482;28;20705;-59
2021/12/04 14:29:47;;;;;;;11.23;6.63;;;9.50;57.10;;;;;;4975922;28;20212;-58
2021/12/04 14:32:13;;;;;;;14.00;7.57;;;9.50;59.20;;;;;;4977344;28;20204;-58
2021/12/04 14:34:40;;;;;;;12.55;7.05;;;9.40;60.30;;;;;;4977220;28;20176;-59
2021/12/04 14:37:12;;;;;;;11.82;5.55;;;9.40;59.10;;;;;;4976931;28;20176;-61
2021/12/04 14:39:47;;;;;;;16.40;7.13;;;9.50;60.10;;;;;;4976963;28;20200;-61
2021/12/04 14:42:17;;;;;;;12.15;6.72;;;9.50;58.50;;;;;;4977085;28;20577;-65
2021/12/04 14:44:55;;;;;;;22.17;10.10;;;9.50;58.60;;;;;;4980697;28;20220;-71
2021/12/04 14:47:22;;;;;;;14.90;7.35;;;9.50;58.50;;;;;;4985514;28;20668;-72
2021/12/04 14:49:51;;;;;;;16.52;7.45;;;9.50;58.70;;;;;;4985321;28;20668;-64
2021/12/04 14:52:22;;;;;;;16.48;8.15;;;9.50;60.00;;;;;;4980999;28;20232;-72
2021/12/04 14:54:49;;;;;;;12.88;5.68;;;9.50;59.20;;;;;;4977160;28;20199;-71
2021/12/04 14:57:19;;;;;;;8.52;5.20;;;9.50;58.90;;;;;;4976733;28;20228;-71
2021/12/04 14:59:46;;;;;;;7.03;4.65;;;9.60;58.30;;;;;;4976423;28;20197;-59
2021/12/04 15:02:17;;;;;;;13.13;5.00;;;9.50;58.30;;;;;;4976528;28;20267;-59
2021/12/04 15:04:43;;;;;;;8.18;4.70;;;9.50;57.70;;;;;;4976656;28;20704;-60
2021/12/04 15:07:25;;;;;;;8.55;5.28;;;9.50;57.80;;;;;;4975784;28;20176;-59
2021/12/04 15:09:51;;;;;;;10.82;5.93;;;9.50;58.40;;;;;;4976470;28;20271;-63
2021/12/04 15:12:31;;;;;;;14.07;5.40;;;9.50;58.50;;;;;;4974192;28;20671;-65
2021/12/04 15:15:07;;;;;;;10.52;5.55;;;9.50;58.20;;;;;;4975648;28;20271;-62
2021/12/04 15:17:34;;;;;;;11.48;7.50;;;9.50;58.70;;;;;;4975024;28;20184;-57
2021/12/04 15:20:11;;;;;;;11.32;6.30;;;9.40;60.40;;;;;;4974925;28;20254;-58
2021/12/04 15:22:43;;;;;;;12.30;6.88;;;9.30;61.80;;;;;;4974338;28;20191;-67
2021/12/04 15:25:11;;;;;;;50.88;29.48;;;9.30;61.30;;;;;;4974172;28;20196;-67
2021/12/04 15:27:37;;;;;;;25.10;14.68;;;9.40;61.30;;;;;;4974865;28;20185;-59
2021/12/04 15:30:09;;;;;;;12.80;7.25;;;9.30;60.60;;;;;;4974767;28;20203;-65
2021/12/04 15:32:38;;;;;;;19.35;10.95;;;9.30;60.70;;;;;;4974975;28;20172;-60
2021/12/04 15:35:35;;;;;;;14.50;9.05;;;9.30;60.80;;;;;;4974946;28;20172;-76
2021/12/04 15:38:10;;;;;;;11.00;6.70;;;9.20;60.80;;;;;;4974833;28;20208;-59
2021/12/04 15:46:20;;;;;;;15.98;7.03;;;9.30;61.20;;;;;;4975729;28;20255;-68
2021/12/04 15:54:06;;;;;;;18.80;6.80;;;9.30;61.90;;;;;;4974475;28;20207;-72
2021/12/04 15:56:38;;;;;;;11.10;5.60;;;9.10;62.70;;;;;;4974597;28;20192;-74
2021/12/04 15:59:06;;;;;;;13.00;6.20;;;9.10;63.30;;;;;;4974219;28;20220;-72
2021/12/04 16:01:32;;;;;;;20.02;9.32;;;9.00;63.80;;;;;;4974251;28;20184;-69
2021/12/04 16:03:59;;;;;;;34.08;14.45;;;9.00;63.50;;;;;;4971648;28;20679;-59
2021/12/04 16:06:39;;;;;;;27.25;13.02;;;9.00;63.40;;;;;;4974369;28;20172;-60
2021/12/04 16:09:06;;;;;;;27.27;13.45;;;8.90;63.90;;;;;;4974474;28;20707;-62
2021/12/04 16:11:37;;;;;;;25.08;12.45;;;8.90;65.70;;;;;;4974240;28;20292;-59
2021/12/04 16:14:04;;;;;;;16.75;8.70;;;8.80;66.00;;;;;;4974324;28;20180;-68
2021/12/04 16:16:32;;;;;;;22.65;9.73;;;8.90;63.80;;;;;;4971533;28;20196;-71
2021/12/04 16:18:58;;;;;;;14.80;7.75;;;8.80;65.80;;;;;;4974054;28;20263;-75
2021/12/04 16:21:25;;;;;;;12.07;6.00;;;8.70;65.20;;;;;;4974341;28;20172;-70
2021/12/04 16:23:52;;;;;;;12.93;6.75;;;8.80;65.00;;;;;;4973803;28;20231;-73